Time;durP1;ratioP1;P1;durP2;ratioP2;P2;SDS_P1;SDS_P2;PMS_P1;PMS_P2;Temp;Humidity;BMP_temperature;BMP_pressure;BME280_temperature;BME280_humidity;BME280_pressure;Samples;Min_cycle;Max_cycle;Signal;HPM_P1;HPM_P2
2024/04/17 00:02:19;;;;;;;23.07;20.33;;;;;;;;;;5523856;25;20948;-77
2024/04/17 00:04:51;;;;;;;20.47;18.87;;;;;;;;;;5524872;25;20524;-74
2024/04/17 00:07:17;;;;;;;20.33;19.00;;;;;;;;;;5524808;25;20776;-74
2024/04/17 00:09:46;;;;;;;21.20;19.57;;;;;;;;;;5523758;25;20544;-75
2024/04/17 00:12:12;;;;;;;21.00;19.43;;;;;;;;;;5523678;25;21015;-73
2024/04/17 00:14:41;;;;;;;19.70;18.07;;;;;;;;;;5524673;25;20516;-75
2024/04/17 00:17:07;;;;;;;20.67;19.20;;;;;;;;;;5524339;25;20488;-73
2024/04/17 00:19:36;;;;;;;21.07;19.27;;;;;;;;;;5523982;25;20520;-74
2024/04/17 00:22:05;;;;;;;20.17;18.90;;;;;;;;;;5525133;25;21008;-74
2024/04/17 00:24:33;;;;;;;20.63;18.90;;;;;;;;;;5524605;25;20453;-74
2024/04/17 00:26:59;;;;;;;20.17;18.97;;;;;;;;;;5524285;25;20491;-75
2024/04/17 00:29:28;;;;;;;21.20;19.77;;;;;;;;;;5523419;25;20449;-75
2024/04/17 00:31:54;;;;;;;20.87;19.47;;;;;;;;;;5523826;25;20465;-74
2024/04/17 00:34:23;;;;;;;21.97;19.97;;;;;;;;;;5524287;25;20579;-75
2024/04/17 00:36:49;;;;;;;37.23;21.00;;;;;;;;;;5524608;25;20417;-75
2024/04/17 00:39:21;;;;;;;21.13;19.60;;;;;;;;;;5523625;25;20512;-76
2024/04/17 00:41:47;;;;;;;20.07;18.90;;;;;;;;;;5523038;25;20541;-74
2024/04/17 00:44:16;;;;;;;21.00;19.17;;;;;;;;;;5523336;25;20484;-75
2024/04/17 00:46:42;;;;;;;19.83;18.37;;;;;;;;;;5522742;25;20461;-75
2024/04/17 00:49:11;;;;;;;21.40;19.70;;;;;;;;;;5523530;25;21374;-75
2024/04/17 00:51:38;;;;;;;21.37;19.87;;;;;;;;;;5523480;25;20451;-74
2024/04/17 00:54:07;;;;;;;21.97;20.00;;;;;;;;;;5524164;25;20833;-74
2024/04/17 00:56:36;;;;;;;21.80;19.70;;;;;;;;;;5523772;25;20454;-74
2024/04/17 00:59:05;;;;;;;21.13;19.33;;;;;;;;;;5523320;25;20466;-75
2024/04/17 01:01:31;;;;;;;20.45;18.77;;;;;;;;;;5523604;25;20473;-75
2024/04/17 01:04:00;;;;;;;19.67;18.37;;;;;;;;;;5521906;26;20280;-75
2024/04/17 01:06:27;;;;;;;20.70;18.93;;;;;;;;;;5523655;25;20567;-75
2024/04/17 01:08:55;;;;;;;20.43;18.30;;;;;;;;;;5523774;25;20444;-75
2024/04/17 01:11:21;;;;;;;20.63;18.97;;;;;;;;;;5521459;25;20481;-74
2024/04/17 01:13:52;;;;;;;19.57;18.03;;;;;;;;;;5524091;25;20524;-74
2024/04/17 01:16:19;;;;;;;19.60;18.30;;;;;;;;;;5523813;26;20976;-75
2024/04/17 01:18:50;;;;;;;19.93;18.10;;;;;;;;;;5523033;25;21092;-74
2024/04/17 01:21:17;;;;;;;19.20;17.93;;;;;;;;;;5523917;25;20449;-77
2024/04/17 01:23:45;;;;;;;18.50;17.30;;;;;;;;;;5523876;25;20489;-75
2024/04/17 01:26:14;;;;;;;19.60;17.80;;;;;;;;;;5523186;25;20490;-75
2024/04/17 01:28:42;;;;;;;20.27;18.77;;;;;;;;;;5522889;25;20490;-74
2024/04/17 01:31:08;;;;;;;19.60;18.20;;;;;;;;;;5522831;25;20525;-75
2024/04/17 01:33:37;;;;;;;20.03;18.30;;;;;;;;;;5523389;25;21077;-74
2024/04/17 01:36:04;;;;;;;18.70;17.60;;;;;;;;;;5523723;25;20580;-75
2024/04/17 01:38:32;;;;;;;19.23;17.63;;;;;;;;;;5523039;25;20965;-75
2024/04/17 01:40:58;;;;;;;21.03;19.20;;;;;;;;;;5523025;25;20477;-75
2024/04/17 01:43:31;;;;;;;20.50;18.47;;;;;;;;;;5522545;25;20486;-74
2024/04/17 01:45:57;;;;;;;20.10;18.33;;;;;;;;;;5522928;25;20523;-75
2024/04/17 01:48:27;;;;;;;19.90;18.73;;;;;;;;;;5522518;25;20611;-75
2024/04/17 01:50:53;;;;;;;19.97;18.50;;;;;;;;;;5522724;25;21040;-75
2024/04/17 01:53:22;;;;;;;22.13;19.48;;;;;;;;;;5523127;25;20437;-73
2024/04/17 01:55:48;;;;;;;20.23;18.93;;;;;;;;;;5523062;25;20229;-74
2024/04/17 01:58:16;;;;;;;20.60;18.87;;;;;;;;;;5522143;25;20424;-75
2024/04/17 02:00:45;;;;;;;22.57;20.07;;;;;;;;;;5522280;25;20464;-74
2024/04/17 02:03:14;;;;;;;20.77;19.50;;;;;;;;;;5522687;25;20442;-74
2024/04/17 02:05:40;;;;;;;21.30;19.90;;;;;;;;;;5521925;25;20433;-73
2024/04/17 02:08:10;;;;;;;21.90;20.13;;;;;;;;;;5488988;25;20471;-74
2024/04/17 02:10:36;;;;;;;20.53;19.07;;;;;;;;;;5485915;26;20505;-74
2024/04/17 02:13:05;;;;;;;21.13;19.73;;;;;;;;;;5485875;26;20466;-75
2024/04/17 02:15:31;;;;;;;21.05;19.55;;;;;;;;;;5485454;26;20241;-73
2024/04/17 02:18:03;;;;;;;22.47;20.17;;;;;;;;;;5485633;26;20240;-75
2024/04/17 02:20:29;;;;;;;21.27;19.67;;;;;;;;;;5485383;26;20466;-74
2024/04/17 02:22:58;;;;;;;21.77;19.97;;;;;;;;;;5486449;26;20552;-73
2024/04/17 02:25:24;;;;;;;20.70;19.30;;;;;;;;;;5485612;26;20458;-74
2024/04/17 02:27:53;;;;;;;20.00;18.73;;;;;;;;;;5485752;26;20513;-74
2024/04/17 02:30:19;;;;;;;20.20;19.00;;;;;;;;;;5484811;26;20993;-73
2024/04/17 02:32:47;;;;;;;20.77;19.00;;;;;;;;;;5485574;26;21341;-74
2024/04/17 02:35:16;;;;;;;21.80;19.63;;;;;;;;;;5485228;26;20572;-74
2024/04/17 02:37:45;;;;;;;20.90;19.33;;;;;;;;;;5485447;26;20232;-74
2024/04/17 02:40:12;;;;;;;19.90;18.53;;;;;;;;;;5484855;26;20523;-74
2024/04/17 02:42:41;;;;;;;21.77;19.97;;;;;;;;;;5485012;26;20524;-75
2024/04/17 02:45:07;;;;;;;19.90;18.40;;;;;;;;;;5484157;26;20458;-74
2024/04/17 02:47:36;;;;;;;20.50;19.10;;;;;;;;;;5485161;26;20515;-75
2024/04/17 02:50:02;;;;;;;21.87;20.13;;;;;;;;;;5484755;26;20463;-74
2024/04/17 02:52:33;;;;;;;20.60;19.13;;;;;;;;;;5485242;26;21097;-74
2024/04/17 02:55:01;;;;;;;21.40;19.52;;;;;;;;;;5485594;26;20259;-74
2024/04/17 02:57:29;;;;;;;21.57;19.97;;;;;;;;;;5485475;26;20297;-75
2024/04/17 02:59:56;;;;;;;22.33;20.40;;;;;;;;;;5484906;26;20517;-76
2024/04/17 03:02:24;;;;;;;20.93;19.53;;;;;;;;;;5521091;25;20871;-74
2024/04/17 03:04:50;;;;;;;21.80;19.60;;;;;;;;;;5521967;25;21363;-74
2024/04/17 03:07:19;;;;;;;21.77;20.10;;;;;;;;;;5522118;25;20752;-74
2024/04/17 03:09:50;;;;;;;22.13;20.70;;;;;;;;;;5520131;25;20555;-74
2024/04/17 03:12:19;;;;;;;20.50;19.30;;;;;;;;;;5521577;25;20544;-74
2024/04/17 03:14:45;;;;;;;22.07;20.47;;;;;;;;;;5521714;25;20455;-75
2024/04/17 03:17:13;;;;;;;22.23;20.63;;;;;;;;;;5521762;25;20493;-74
2024/04/17 03:19:39;;;;;;;22.00;20.35;;;;;;;;;;5520176;25;20459;-74
2024/04/17 03:22:08;;;;;;;22.27;20.57;;;;;;;;;;5521521;25;20244;-76
2024/04/17 03:24:34;;;;;;;21.77;19.90;;;;;;;;;;5521840;26;20504;-73
2024/04/17 03:27:05;;;;;;;22.90;20.73;;;;;;;;;;5521019;25;20461;-74
2024/04/17 03:29:32;;;;;;;23.95;22.02;;;;;;;;;;5521203;25;20460;-75
2024/04/17 03:32:02;;;;;;;23.80;22.00;;;;;;;;;;5521847;25;20245;-75
2024/04/17 03:34:29;;;;;;;23.07;21.00;;;;;;;;;;5521803;25;20456;-75
2024/04/17 03:36:58;;;;;;;62.55;44.72;;;;;;;;;;5521978;26;20754;-74
2024/04/17 03:39:26;;;;;;;23.08;21.25;;;;;;;;;;5513482;26;20240;-74
2024/04/17 03:41:55;;;;;;;24.00;21.70;;;;;;;;;;5484900;26;20245;-75
2024/04/17 03:44:26;;;;;;;23.43;21.43;;;;;;;;;;5487267;26;20458;-74
2024/04/17 03:46:55;;;;;;;22.23;20.83;;;;;;;;;;5521118;26;20472;-75
2024/04/17 03:49:23;;;;;;;22.30;20.67;;;;;;;;;;5520098;25;20229;-74
2024/04/17 03:51:49;;;;;;;22.65;20.33;;;;;;;;;;5520963;26;20285;-75
2024/04/17 03:54:18;;;;;;;22.73;20.90;;;;;;;;;;5521423;26;20429;-74
2024/04/17 03:56:44;;;;;;;22.95;21.05;;;;;;;;;;5520943;26;20456;-74
2024/04/17 03:59:13;;;;;;;23.52;21.35;;;;;;;;;;5520810;26;20275;-75
2024/04/17 04:01:42;;;;;;;21.67;20.27;;;;;;;;;;5520970;26;20559;-74
2024/04/17 04:04:10;;;;;;;22.98;21.38;;;;;;;;;;5521116;26;20370;-75
2024/04/17 04:06:36;;;;;;;23.20;20.95;;;;;;;;;;5520790;26;20254;-74
2024/04/17 04:09:06;;;;;;;23.38;21.67;;;;;;;;;;5520069;26;20259;-75
2024/04/17 04:11:32;;;;;;;22.50;21.00;;;;;;;;;;5520052;25;20252;-74
2024/04/17 04:14:00;;;;;;;23.67;21.55;;;;;;;;;;5521122;26;21144;-75
2024/04/17 04:16:26;;;;;;;23.27;21.55;;;;;;;;;;5520954;26;20263;-75
2024/04/17 04:18:58;;;;;;;23.80;21.63;;;;;;;;;;5519887;26;20328;-74
2024/04/17 04:21:24;;;;;;;22.30;20.70;;;;;;;;;;5522523;26;20240;-75
2024/04/17 04:23:53;;;;;;;23.13;21.67;;;;;;;;;;5524749;25;20224;-74
2024/04/17 04:26:19;;;;;;;23.03;21.43;;;;;;;;;;5524557;26;20457;-73
2024/04/17 04:28:49;;;;;;;23.17;21.40;;;;;;;;;;5523988;26;20437;-73
2024/04/17 04:31:17;;;;;;;24.35;22.20;;;;;;;;;;5524032;25;20240;-73
2024/04/17 04:33:45;;;;;;;23.50;21.70;;;;;;;;;;5524307;26;20232;-74
2024/04/17 04:36:14;;;;;;;24.30;22.50;;;;;;;;;;5524152;25;20309;-74
2024/04/17 04:38:44;;;;;;;25.73;23.00;;;;;;;;;;5522551;25;20248;-74
2024/04/17 04:41:10;;;;;;;23.10;21.03;;;;;;;;;;5523678;25;20290;-74
2024/04/17 04:43:39;;;;;;;24.80;22.52;;;;;;;;;;5524172;25;20494;-74
2024/04/17 04:46:05;;;;;;;24.17;22.17;;;;;;;;;;5524088;25;20755;-73
2024/04/17 04:48:34;;;;;;;27.35;24.20;;;;;;;;;;5523288;25;20254;-74
2024/04/17 04:51:00;;;;;;;24.55;21.95;;;;;;;;;;5523396;25;20227;-74
2024/04/17 04:53:31;;;;;;;24.30;22.50;;;;;;;;;;5523609;25;20233;-73
2024/04/17 04:55:57;;;;;;;26.73;23.40;;;;;;;;;;5524074;25;20433;-74
2024/04/17 04:58:26;;;;;;;34.80;23.13;;;;;;;;;;5523587;25;20461;-74
2024/04/17 05:00:52;;;;;;;24.75;22.50;;;;;;;;;;5520700;25;20616;-76
2024/04/17 05:03:22;;;;;;;25.10;22.48;;;;;;;;;;5523610;25;20231;-74
2024/04/17 05:05:48;;;;;;;25.70;23.00;;;;;;;;;;5523124;25;20235;-74
2024/04/17 05:08:17;;;;;;;26.02;23.27;;;;;;;;;;5521334;26;20570;-74
2024/04/17 05:10:46;;;;;;;41.42;23.80;;;;;;;;;;5521649;26;20228;-74
2024/04/17 05:13:15;;;;;;;47.55;23.15;;;;;;;;;;5503010;26;20244;-73
2024/04/17 05:15:41;;;;;;;31.60;21.63;;;;;;;;;;5512027;25;21018;-75
2024/04/17 05:18:10;;;;;;;29.13;23.43;;;;;;;;;;5486672;26;20538;-75
2024/04/17 05:20:36;;;;;;;50.88;23.77;;;;;;;;;;5485081;26;20546;-74
2024/04/17 05:23:05;;;;;;;36.50;23.33;;;;;;;;;;5487300;26;20426;-74
2024/04/17 05:25:33;;;;;;;105.90;30.00;;;;;;;;;;5487232;26;20463;-74
2024/04/17 05:28:02;;;;;;;32.45;23.20;;;;;;;;;;5514128;25;20243;-75
2024/04/17 05:30:31;;;;;;;38.28;23.60;;;;;;;;;;5492776;26;20308;-74
2024/04/17 05:32:57;;;;;;;25.33;22.85;;;;;;;;;;5522516;25;20772;-74
2024/04/17 05:35:25;;;;;;;63.42;25.30;;;;;;;;;;5522621;26;20262;-75
2024/04/17 05:37:52;;;;;;;26.53;23.73;;;;;;;;;;5523922;25;20223;-74
2024/04/17 05:40:21;;;;;;;27.02;23.23;;;;;;;;;;5523568;25;20573;-74
2024/04/17 05:42:47;;;;;;;42.38;23.90;;;;;;;;;;5522927;25;20328;-75
2024/04/17 05:45:19;;;;;;;26.83;23.63;;;;;;;;;;5523397;25;20735;-81
2024/04/17 05:47:45;;;;;;;25.67;22.90;;;;;;;;;;5523612;25;20545;-73
2024/04/17 05:50:13;;;;;;;24.53;22.20;;;;;;;;;;5522315;25;20477;-75
2024/04/17 05:52:39;;;;;;;53.15;24.92;;;;;;;;;;5522655;25;20445;-74
2024/04/17 05:55:08;;;;;;;25.95;23.30;;;;;;;;;;5523183;25;20220;-75
2024/04/17 05:57:34;;;;;;;24.65;22.67;;;;;;;;;;5523268;25;20711;-74
2024/04/17 06:00:04;;;;;;;27.02;24.25;;;;;;;;;;5522619;25;20710;-75
2024/04/17 06:02:32;;;;;;;26.40;23.60;;;;;;;;;;5522006;25;20291;-74
2024/04/17 06:05:01;;;;;;;25.40;22.87;;;;;;;;;;5522663;25;20887;-74
2024/04/17 06:07:27;;;;;;;25.75;23.20;;;;;;;;;;5521206;25;21023;-74
2024/04/17 06:09:56;;;;;;;27.33;22.90;;;;;;;;;;5521390;25;20228;-73
2024/04/17 06:12:22;;;;;;;24.23;22.40;;;;;;;;;;5522424;25;20509;-74
2024/04/17 06:14:52;;;;;;;24.60;22.60;;;;;;;;;;5522701;25;20575;-73
2024/04/17 06:17:18;;;;;;;26.00;23.63;;;;;;;;;;5523262;25;20433;-74
2024/04/17 06:19:49;;;;;;;25.40;23.07;;;;;;;;;;5521954;25;20443;-75
2024/04/17 06:22:15;;;;;;;26.20;23.83;;;;;;;;;;5521944;25;21167;-76
2024/04/17 06:24:44;;;;;;;24.47;22.60;;;;;;;;;;5521859;25;20541;-75
2024/04/17 06:27:10;;;;;;;25.13;22.93;;;;;;;;;;5522115;25;21139;-74
2024/04/17 06:29:38;;;;;;;25.13;22.90;;;;;;;;;;5521375;25;20461;-75
2024/04/17 06:32:05;;;;;;;25.43;22.10;;;;;;;;;;5521225;25;20474;-74
2024/04/17 06:34:34;;;;;;;24.70;22.50;;;;;;;;;;5521939;25;20438;-74
2024/04/17 06:37:03;;;;;;;26.00;23.20;;;;;;;;;;5521583;25;20453;-74
2024/04/17 06:39:31;;;;;;;23.90;21.73;;;;;;;;;;5519312;25;21043;-75
2024/04/17 06:41:59;;;;;;;25.70;22.60;;;;;;;;;;5499710;26;20457;-74
2024/04/17 06:44:28;;;;;;;24.50;22.50;;;;;;;;;;5519960;25;20445;-75
2024/04/17 06:46:54;;;;;;;23.23;21.20;;;;;;;;;;5520024;25;20481;-75
2024/04/17 06:49:25;;;;;;;24.50;22.73;;;;;;;;;;5520898;25;20425;-74
2024/04/17 06:51:51;;;;;;;26.60;24.10;;;;;;;;;;5520144;25;20545;-74
2024/04/17 06:54:22;;;;;;;28.03;25.27;;;;;;;;;;5521654;26;20575;-74
2024/04/17 06:56:48;;;;;;;25.33;23.17;;;;;;;;;;5522097;25;20466;-74
2024/04/17 06:59:16;;;;;;;24.73;22.40;;;;;;;;;;5519677;26;20498;-75
2024/04/17 07:01:42;;;;;;;24.57;22.87;;;;;;;;;;5520938;25;20824;-73
2024/04/17 07:04:11;;;;;;;24.97;22.77;;;;;;;;;;5521154;25;20954;-74
2024/04/17 07:06:38;;;;;;;23.10;21.17;;;;;;;;;;5522002;25;20445;-73
2024/04/17 07:09:06;;;;;;;24.27;22.40;;;;;;;;;;5520950;25;20496;-73
2024/04/17 07:11:35;;;;;;;23.30;21.60;;;;;;;;;;5521652;25;20946;-74
2024/04/17 07:14:04;;;;;;;24.53;22.53;;;;;;;;;;5521652;25;20426;-74
2024/04/17 07:16:30;;;;;;;24.07;21.73;;;;;;;;;;5521570;25;20445;-75
2024/04/17 07:18:59;;;;;;;24.57;22.47;;;;;;;;;;5520977;25;20513;-73
2024/04/17 07:21:25;;;;;;;25.33;23.27;;;;;;;;;;5521010;25;20558;-73
2024/04/17 07:23:56;;;;;;;24.27;22.13;;;;;;;;;;5521921;25;20501;-75
2024/04/17 07:26:22;;;;;;;23.77;21.77;;;;;;;;;;5521873;25;20429;-74
2024/04/17 07:28:53;;;;;;;25.37;23.10;;;;;;;;;;5521067;25;20469;-74
2024/04/17 07:31:19;;;;;;;25.50;22.50;;;;;;;;;;5521001;25;20449;-74
2024/04/17 07:33:50;;;;;;;24.97;22.60;;;;;;;;;;5520208;25;20502;-74
2024/04/17 07:36:16;;;;;;;24.10;22.10;;;;;;;;;;5522054;25;20473;-78
2024/04/17 07:38:45;;;;;;;25.63;23.30;;;;;;;;;;5522334;25;20437;-78
2024/04/17 07:41:11;;;;;;;25.10;23.30;;;;;;;;;;5523041;25;20450;-78
2024/04/17 07:43:40;;;;;;;25.77;23.43;;;;;;;;;;5523123;25;20599;-77
2024/04/17 07:46:08;;;;;;;25.03;23.03;;;;;;;;;;5521590;26;20558;-77
2024/04/17 07:48:38;;;;;;;25.43;23.20;;;;;;;;;;5521709;26;20918;-76
2024/04/17 07:51:04;;;;;;;24.17;22.37;;;;;;;;;;5520720;25;20430;-77
2024/04/17 07:53:33;;;;;;;23.73;21.93;;;;;;;;;;5521358;25;20470;-78
2024/04/17 07:55:59;;;;;;;30.53;24.23;;;;;;;;;;5524688;25;20455;-78
2024/04/17 07:58:28;;;;;;;24.27;22.10;;;;;;;;;;5524068;26;20498;-80
2024/04/17 08:00:54;;;;;;;25.23;22.43;;;;;;;;;;5524866;26;20456;-79
2024/04/17 08:03:25;;;;;;;25.10;22.73;;;;;;;;;;5525121;25;20461;-78
2024/04/17 08:05:51;;;;;;;23.47;21.63;;;;;;;;;;5523337;25;20463;-78
2024/04/17 08:08:20;;;;;;;25.70;23.10;;;;;;;;;;5524459;26;20460;-77
2024/04/17 08:10:46;;;;;;;24.17;22.27;;;;;;;;;;5523951;25;20473;-77
2024/04/17 08:13:16;;;;;;;24.40;22.00;;;;;;;;;;5524552;25;20596;-77
2024/04/17 08:15:42;;;;;;;21.83;20.17;;;;;;;;;;5524565;26;20474;-76
2024/04/17 08:18:10;;;;;;;23.70;21.90;;;;;;;;;;5517410;25;20539;-73
2024/04/17 08:20:41;;;;;;;23.70;21.80;;;;;;;;;;5522835;25;20473;-75
2024/04/17 08:23:09;;;;;;;22.97;21.20;;;;;;;;;;5523570;25;21071;-73
2024/04/17 08:25:36;;;;;;;23.27;21.37;;;;;;;;;;5486621;26;20527;-74
2024/04/17 08:28:04;;;;;;;23.90;21.80;;;;;;;;;;5511534;26;20454;-72
2024/04/17 08:30:30;;;;;;;23.27;21.57;;;;;;;;;;5511201;25;20477;-75
2024/04/17 08:32:59;;;;;;;23.10;21.30;;;;;;;;;;5522774;25;20552;-77
2024/04/17 08:35:25;;;;;;;23.60;21.13;;;;;;;;;;5524055;25;20497;-73
2024/04/17 08:37:56;;;;;;;23.87;21.67;;;;;;;;;;5523181;25;20457;-77
2024/04/17 08:40:23;;;;;;;23.60;21.60;;;;;;;;;;5522894;26;21117;-75
2024/04/17 08:42:53;;;;;;;21.47;20.17;;;;;;;;;;5522207;25;20550;-75
2024/04/17 08:45:24;;;;;;;23.97;22.07;;;;;;;;;;5522690;26;21009;-75
2024/04/17 08:47:53;;;;;;;20.60;19.23;;;;;;;;;;5523595;26;20631;-79
2024/04/17 08:50:20;;;;;;;21.70;20.07;;;;;;;;;;5522533;26;20469;-76
2024/04/17 08:52:50;;;;;;;22.10;20.40;;;;;;;;;;5523031;25;20479;-74
2024/04/17 08:55:19;;;;;;;22.77;20.60;;;;;;;;;;5521296;26;20512;-76
2024/04/17 08:57:51;;;;;;;22.30;20.70;;;;;;;;;;5523140;26;20474;-76
2024/04/17 09:00:17;;;;;;;21.73;20.20;;;;;;;;;;5521649;26;20488;-77
2024/04/17 09:02:47;;;;;;;21.47;20.03;;;;;;;;;;5524039;25;20574;-76
2024/04/17 09:05:13;;;;;;;22.70;20.57;;;;;;;;;;5521632;25;20495;-75
2024/04/17 09:07:43;;;;;;;23.60;21.70;;;;;;;;;;5521862;25;20587;-76
2024/04/17 09:10:09;;;;;;;22.80;20.97;;;;;;;;;;5521873;26;20498;-75
2024/04/17 09:12:44;;;;;;;23.63;21.87;;;;;;;;;;5523146;25;20480;-74
2024/04/17 09:15:12;;;;;;;26.27;23.47;;;;;;;;;;5522601;25;20911;-76
2024/04/17 09:17:41;;;;;;;23.17;21.47;;;;;;;;;;5524422;25;20469;-77
2024/04/17 09:20:09;;;;;;;22.67;20.87;;;;;;;;;;5523609;26;20441;-75
2024/04/17 09:22:38;;;;;;;23.33;21.73;;;;;;;;;;5521842;25;20471;-76
2024/04/17 09:25:11;;;;;;;24.60;22.60;;;;;;;;;;5523530;25;21093;-75
2024/04/17 09:27:43;;;;;;;25.87;23.37;;;;;;;;;;5524045;25;20443;-75
2024/04/17 09:30:10;;;;;;;24.80;22.90;;;;;;;;;;5522312;25;21087;-76
2024/04/17 09:32:39;;;;;;;25.83;23.83;;;;;;;;;;5522998;25;20433;-74
2024/04/17 09:35:09;;;;;;;28.10;25.70;;;;;;;;;;5523305;25;21188;-76
2024/04/17 09:37:38;;;;;;;28.63;26.23;;;;;;;;;;5523265;25;20438;-75
2024/04/17 09:40:05;;;;;;;27.80;25.60;;;;;;;;;;5522835;25;20473;-75
2024/04/17 09:42:35;;;;;;;27.17;24.80;;;;;;;;;;5522419;25;20558;-75
2024/04/17 09:45:04;;;;;;;25.20;23.30;;;;;;;;;;5523597;25;20437;-75
2024/04/17 09:47:33;;;;;;;22.23;21.00;;;;;;;;;;5523034;25;20490;-74
2024/04/17 09:50:00;;;;;;;23.47;21.77;;;;;;;;;;5522446;26;20457;-76
2024/04/17 09:52:29;;;;;;;24.57;22.63;;;;;;;;;;5523818;25;21112;-75
2024/04/17 09:54:56;;;;;;;21.70;20.30;;;;;;;;;;5523303;25;21402;-76
2024/04/17 09:57:25;;;;;;;23.07;21.50;;;;;;;;;;5523450;26;20613;-76
2024/04/17 09:59:52;;;;;;;22.63;21.00;;;;;;;;;;5522095;25;20522;-75
2024/04/17 10:02:27;;;;;;;22.83;21.43;;;;;;;;;;5523311;26;20467;-76
2024/04/17 10:04:54;;;;;;;20.53;19.20;;;;;;;;;;5523261;26;20439;-75
2024/04/17 10:07:24;;;;;;;21.40;20.20;;;;;;;;;;5524088;26;20473;-76
2024/04/17 10:09:50;;;;;;;20.97;19.77;;;;;;;;;;5521253;25;20474;-75
2024/04/17 10:12:21;;;;;;;22.07;20.67;;;;;;;;;;5521397;25;20536;-76
2024/04/17 10:14:47;;;;;;;22.20;20.90;;;;;;;;;;5523220;25;20442;-76
2024/04/17 10:17:16;;;;;;;20.30;19.10;;;;;;;;;;5523134;25;20591;-76
2024/04/17 10:19:52;;;;;;;20.37;19.17;;;;;;;;;;5522243;25;20540;-76
2024/04/17 10:22:21;;;;;;;20.83;19.73;;;;;;;;;;5524292;25;20446;-76
2024/04/17 10:24:47;;;;;;;20.97;19.67;;;;;;;;;;5522676;25;20828;-76
2024/04/17 10:27:18;;;;;;;20.93;19.73;;;;;;;;;;5523206;25;20439;-76
2024/04/17 10:29:48;;;;;;;22.00;20.17;;;;;;;;;;5522644;25;21006;-77
2024/04/17 10:32:15;;;;;;;20.60;19.50;;;;;;;;;;5523012;25;20455;-76
2024/04/17 10:34:45;;;;;;;21.23;20.00;;;;;;;;;;5523001;25;20576;-76
2024/04/17 10:37:14;;;;;;;21.37;20.03;;;;;;;;;;5523118;25;20435;-77
2024/04/17 10:39:44;;;;;;;22.20;21.00;;;;;;;;;;5522578;25;20502;-76
2024/04/17 10:42:13;;;;;;;21.40;20.10;;;;;;;;;;5521432;25;20462;-77
2024/04/17 10:44:47;;;;;;;23.13;21.33;;;;;;;;;;5523354;25;20467;-76
2024/04/17 10:47:18;;;;;;;21.17;19.63;;;;;;;;;;5523153;25;20790;-76
2024/04/17 10:49:58;;;;;;;21.33;20.03;;;;;;;;;;5522397;25;20457;-76
2024/04/17 10:52:30;;;;;;;20.90;19.80;;;;;;;;;;5522098;25;20490;-76
2024/04/17 10:54:56;;;;;;;19.50;18.47;;;;;;;;;;5522497;25;20834;-77
2024/04/17 10:57:26;;;;;;;20.10;18.80;;;;;;;;;;5522860;26;20587;-77
2024/04/17 10:59:52;;;;;;;20.47;19.27;;;;;;;;;;5522107;25;20495;-77
2024/04/17 11:02:22;;;;;;;22.40;21.00;;;;;;;;;;5522904;25;20467;-77
2024/04/17 11:04:48;;;;;;;23.13;21.53;;;;;;;;;;5520202;25;20493;-76
2024/04/17 11:07:18;;;;;;;23.17;21.67;;;;;;;;;;5522119;26;20439;-75
2024/04/17 11:09:47;;;;;;;23.50;21.70;;;;;;;;;;5521784;26;20511;-76
2024/04/17 11:12:16;;;;;;;20.77;19.47;;;;;;;;;;5521665;25;20814;-75
2024/04/17 11:14:42;;;;;;;21.37;19.70;;;;;;;;;;5522124;26;20434;-75
2024/04/17 11:17:11;;;;;;;21.57;20.20;;;;;;;;;;5521650;26;20527;-77
2024/04/17 11:19:38;;;;;;;20.67;19.10;;;;;;;;;;5520731;26;20519;-76
2024/04/17 11:22:10;;;;;;;19.17;18.10;;;;;;;;;;5521879;25;20514;-76
2024/04/17 11:24:36;;;;;;;20.13;19.13;;;;;;;;;;5521326;25;20466;-75
2024/04/17 11:27:12;;;;;;;20.03;18.87;;;;;;;;;;5520420;25;20450;-77
2024/04/17 11:29:38;;;;;;;21.43;20.00;;;;;;;;;;5490649;26;20481;-77
2024/04/17 11:32:08;;;;;;;20.83;19.53;;;;;;;;;;5511041;26;20478;-74
2024/04/17 11:34:34;;;;;;;22.10;20.80;;;;;;;;;;5525086;25;20469;-75
2024/04/17 11:37:06;;;;;;;20.77;19.57;;;;;;;;;;5524005;25;20445;-76
2024/04/17 11:39:32;;;;;;;21.73;20.20;;;;;;;;;;5524393;25;20456;-76
2024/04/17 11:42:01;;;;;;;21.77;20.23;;;;;;;;;;5524509;25;20467;-75
2024/04/17 11:44:35;;;;;;;19.30;18.30;;;;;;;;;;5523878;25;21039;-76
2024/04/17 11:47:04;;;;;;;19.80;18.60;;;;;;;;;;5521239;26;20560;-76
2024/04/17 11:49:32;;;;;;;19.33;18.13;;;;;;;;;;5523631;26;20509;-76
2024/04/17 11:51:58;;;;;;;19.63;18.60;;;;;;;;;;5524380;25;21137;-76
2024/04/17 11:54:27;;;;;;;20.00;18.90;;;;;;;;;;5524456;25;20588;-74
2024/04/17 11:56:53;;;;;;;19.00;18.00;;;;;;;;;;5487548;26;20456;-75
2024/04/17 11:59:22;;;;;;;19.90;18.90;;;;;;;;;;5487169;26;20548;-76
2024/04/17 12:01:53;;;;;;;19.00;18.00;;;;;;;;;;5514333;25;20507;-75
2024/04/17 12:04:27;;;;;;;19.37;18.30;;;;;;;;;;5524435;25;20802;-76
2024/04/17 12:06:53;;;;;;;19.10;18.10;;;;;;;;;;5524864;25;20438;-76
2024/04/17 12:09:22;;;;;;;20.60;19.27;;;;;;;;;;5489840;25;20444;-75
2024/04/17 12:11:48;;;;;;;19.60;18.47;;;;;;;;;;5487420;26;20441;-75
2024/04/17 12:14:16;;;;;;;18.60;17.50;;;;;;;;;;5487487;26;20877;-76
2024/04/17 12:16:44;;;;;;;19.50;18.40;;;;;;;;;;5487162;26;20810;-76
2024/04/17 12:19:17;;;;;;;19.70;18.57;;;;;;;;;;5515451;25;20458;-75
2024/04/17 12:21:43;;;;;;;19.10;18.10;;;;;;;;;;5516284;25;20442;-76
2024/04/17 12:24:18;;;;;;;19.20;18.10;;;;;;;;;;5487456;26;20443;-76
2024/04/17 12:26:50;;;;;;;19.17;18.17;;;;;;;;;;5487497;26;20561;-76
2024/04/17 12:29:19;;;;;;;18.80;17.80;;;;;;;;;;5487124;26;20455;-76
2024/04/17 12:31:48;;;;;;;19.50;18.40;;;;;;;;;;5518149;25;20559;-76
2024/04/17 12:34:19;;;;;;;19.33;18.33;;;;;;;;;;5524406;25;20430;-77
2024/04/17 12:36:48;;;;;;;19.73;18.60;;;;;;;;;;5524119;25;20522;-75
2024/04/17 12:39:14;;;;;;;18.90;18.00;;;;;;;;;;5522897;25;20852;-75
2024/04/17 12:41:43;;;;;;;19.67;18.67;;;;;;;;;;5521600;25;21128;-76
2024/04/17 12:44:13;;;;;;;19.30;18.30;;;;;;;;;;5523880;25;20473;-77
2024/04/17 12:46:41;;;;;;;19.93;18.83;;;;;;;;;;5523550;25;20465;-75
2024/04/17 12:49:07;;;;;;;18.67;17.67;;;;;;;;;;5523896;25;20472;-76
2024/04/17 12:51:39;;;;;;;19.90;18.90;;;;;;;;;;5524358;25;20457;-76
2024/04/17 12:54:05;;;;;;;19.60;18.40;;;;;;;;;;5522769;25;20503;-76
2024/04/17 12:56:34;;;;;;;21.03;19.80;;;;;;;;;;5523664;25;21073;-76
2024/04/17 12:59:05;;;;;;;21.50;20.30;;;;;;;;;;5506133;26;20471;-75
2024/04/17 13:01:31;;;;;;;22.87;21.57;;;;;;;;;;5523135;25;20479;-78
2024/04/17 13:04:01;;;;;;;22.70;21.37;;;;;;;;;;5522279;25;20488;-76
2024/04/17 13:06:27;;;;;;;23.20;21.90;;;;;;;;;;5523554;25;20471;-76
2024/04/17 13:08:58;;;;;;;23.17;21.90;;;;;;;;;;5523043;25;20485;-76
2024/04/17 13:11:24;;;;;;;22.67;21.10;;;;;;;;;;5522833;25;20529;-75
2024/04/17 13:13:54;;;;;;;23.93;22.33;;;;;;;;;;5524426;25;20488;-76
2024/04/17 13:16:21;;;;;;;22.73;21.53;;;;;;;;;;5523170;25;20511;-76
2024/04/17 13:18:50;;;;;;;22.63;21.43;;;;;;;;;;5523330;25;20420;-75
2024/04/17 13:21:16;;;;;;;21.70;20.47;;;;;;;;;;5523949;25;20470;-75
2024/04/17 13:23:45;;;;;;;21.33;20.13;;;;;;;;;;5523788;25;20426;-75
2024/04/17 13:26:13;;;;;;;21.33;20.13;;;;;;;;;;5522165;25;20467;-76
2024/04/17 13:28:42;;;;;;;21.67;20.47;;;;;;;;;;5522555;26;20485;-76
2024/04/17 13:31:08;;;;;;;23.03;21.63;;;;;;;;;;5486010;26;20490;-75
2024/04/17 13:33:38;;;;;;;22.70;21.40;;;;;;;;;;5486828;26;20827;-75
2024/04/17 13:36:05;;;;;;;21.83;20.63;;;;;;;;;;5486185;26;20459;-76
2024/04/17 13:38:34;;;;;;;21.87;20.63;;;;;;;;;;5485736;26;20689;-75
2024/04/17 13:41:01;;;;;;;22.20;20.90;;;;;;;;;;5485635;26;20529;-75
2024/04/17 13:43:32;;;;;;;22.50;21.20;;;;;;;;;;5486529;26;20506;-75
2024/04/17 13:45:59;;;;;;;22.30;20.80;;;;;;;;;;5486082;26;20521;-74
2024/04/17 13:48:27;;;;;;;21.43;20.33;;;;;;;;;;5488410;26;20447;-76
2024/04/17 13:51:02;;;;;;;20.43;19.33;;;;;;;;;;5485973;26;21025;-77
2024/04/17 13:53:28;;;;;;;20.60;19.50;;;;;;;;;;5514095;26;20506;-75
2024/04/17 13:55:57;;;;;;;20.67;19.57;;;;;;;;;;5523364;26;21053;-75
2024/04/17 13:58:23;;;;;;;20.53;19.07;;;;;;;;;;5522874;26;20506;-75
2024/04/17 14:00:55;;;;;;;19.90;18.90;;;;;;;;;;5524961;25;20520;-76
2024/04/17 14:03:25;;;;;;;20.40;18.93;;;;;;;;;;5521913;25;20471;-76
2024/04/17 14:05:51;;;;;;;20.20;19.00;;;;;;;;;;5522956;26;20483;-77
2024/04/17 14:08:20;;;;;;;20.20;19.00;;;;;;;;;;5523035;26;20466;-80
2024/04/17 14:10:46;;;;;;;20.33;18.97;;;;;;;;;;5524968;26;20427;-79
2024/04/17 14:13:15;;;;;;;20.50;19.20;;;;;;;;;;5515213;25;20475;-74
2024/04/17 14:15:41;;;;;;;19.73;18.63;;;;;;;;;;5510985;26;20469;-74
2024/04/17 14:18:12;;;;;;;20.27;18.97;;;;;;;;;;5521734;25;20524;-74
2024/04/17 14:20:42;;;;;;;21.27;20.07;;;;;;;;;;5485854;26;20568;-74
2024/04/17 14:23:08;;;;;;;21.57;20.33;;;;;;;;;;5518075;25;20518;-75